Time;durP1;ratioP1;P1;durP2;ratioP2;P2;SDS_P1;SDS_P2;PMS_P1;PMS_P2;Temp;Humidity;BMP_temperature;BMP_pressure;BME280_temperature;BME280_humidity;BME280_pressure;Samples;Min_cycle;Max_cycle;Signal;HPM_P1;HPM_P2
2022/12/14 00:00:00;;;;;;;14.60;5.00;;;;;;;-3.71;81.57;99295.61;104942;1295;1002067;-66
2022/12/14 00:03:08;;;;;;;12.20;4.80;;;;;;;-3.71;81.59;99292.15;105639;1290;61856;-65
2022/12/14 00:05:56;;;;;;;11.90;4.50;;;;;;;-3.73;81.14;99288.38;105552;1294;73075;-66
2022/12/14 00:08:46;;;;;;;14.10;4.80;;;;;;;-3.76;81.02;99288.29;105780;1297;67425;-66
2022/12/14 00:11:34;;;;;;;12.30;4.30;;;;;;;-3.79;80.90;99289.44;105719;1294;71058;-67
2022/12/14 00:14:22;;;;;;;13.00;5.00;;;;;;;-3.84;81.04;99292.71;105927;1291;57958;-67
2022/12/14 00:17:10;;;;;;;13.20;4.80;;;;;;;-3.89;80.67;99288.52;105796;1286;61354;-65
2022/12/14 00:19:58;;;;;;;12.60;5.00;;;;;;;-3.93;80.93;99287.98;105897;1297;73847;-67
2022/12/14 00:22:45;;;;;;;12.90;5.00;;;;;;;-3.98;80.91;99290.71;105889;1290;68171;-66
2022/12/14 00:25:33;;;;;;;12.20;4.70;;;;;;;-4.04;80.89;99292.82;105808;1292;72458;-66
2022/12/14 00:28:25;;;;;;;13.30;4.90;;;;;;;-4.08;80.40;99294.83;105921;1292;58504;-66
2022/12/14 00:31:14;;;;;;;11.90;4.40;;;;;;;-4.10;80.79;99297.48;105926;1292;60464;-68
2022/12/14 00:34:01;;;;;;;12.60;4.40;;;;;;;-4.14;80.51;99299.85;105706;1295;73059;-66
2022/12/14 00:36:49;;;;;;;11.60;4.40;;;;;;;-4.19;80.46;99311.96;105999;1289;67729;-67
2022/12/14 00:39:37;;;;;;;11.10;3.90;;;;;;;-4.21;79.99;99316.16;105795;1289;71355;-66
2022/12/14 00:42:25;;;;;;;10.50;4.10;;;;;;;-4.21;79.83;99316.88;106069;1287;57859;-67
2022/12/14 00:45:12;;;;;;;11.00;4.30;;;;;;;-4.22;80.20;99322.63;105352;1288;1002923;-65
2022/12/14 00:48:01;;;;;;;10.40;3.50;;;;;;;-4.24;79.88;99324.58;106084;1289;72954;-66
2022/12/14 00:50:50;;;;;;;12.30;4.40;;;;;;;-4.27;79.65;99322.05;106102;1289;66653;-66
2022/12/14 00:53:39;;;;;;;12.60;4.70;;;;;;;-4.30;79.66;99323.52;105070;1297;1002292;-67
2022/12/14 00:56:28;;;;;;;10.80;3.90;;;;;;;-4.32;79.46;99320.13;105233;1290;1002330;-66
2022/12/14 00:59:17;;;;;;;10.60;4.20;;;;;;;-4.35;79.17;99319.89;105140;1295;1002942;-65
2022/12/14 01:02:12;;;;;;;12.10;4.10;;;;;;;-4.40;79.28;99315.70;105911;1291;71650;-66
2022/12/14 01:05:00;;;;;;;10.00;4.10;;;;;;;-4.46;79.39;99312.55;105240;1284;1002402;-66
2022/12/14 01:07:47;;;;;;;11.50;4.20;;;;;;;-4.51;79.33;99310.09;106072;1287;71380;-68
2022/12/14 01:10:39;;;;;;;10.30;3.80;;;;;;;-4.58;79.35;99308.03;106088;1292;57159;-66
2022/12/14 01:13:27;;;;;;;12.20;3.90;;;;;;;-4.67;79.26;99308.80;105905;1287;57672;-66
2022/12/14 01:16:16;;;;;;;11.20;4.60;;;;;;;-4.76;79.28;99310.09;106075;1295;73899;-66
2022/12/14 01:19:04;;;;;;;19.10;6.00;;;;;;;-4.81;79.69;99307.79;105956;1290;67954;-69
2022/12/14 01:21:52;;;;;;;20.60;7.20;;;;;;;-4.93;80.18;99303.44;106012;1290;72742;-67
2022/12/14 01:24:43;;;;;;;17.30;5.00;;;;;;;-4.99;80.56;99311.20;105879;1288;57191;-66
2022/12/14 01:27:31;;;;;;;19.50;5.80;;;;;;;-5.11;80.79;99311.54;105193;1297;1002232;-66
2022/12/14 01:30:19;;;;;;;20.50;7.10;;;;;;;-5.25;81.08;99311.16;105315;1288;1002281;-67
2022/12/14 01:33:07;;;;;;;21.80;6.50;;;;;;;-5.38;81.78;99306.85;106001;1290;67907;-66
2022/12/14 01:35:54;;;;;;;16.20;5.60;;;;;;;-5.50;82.76;99307.48;105324;1288;1002057;-66
2022/12/14 01:38:43;;;;;;;15.70;5.40;;;;;;;-5.58;82.68;99314.92;106082;1296;58055;-67
2022/12/14 01:42:00;;;;;;;15.40;5.50;;;;;;;-5.68;83.12;99309.44;105955;1292;58633;-66
2022/12/14 01:44:55;;;;;;;11.10;4.20;;;;;;;-5.79;83.30;99304.36;104776;1296;1002431;-65
2022/12/14 01:47:50;;;;;;;12.70;4.80;;;;;;;-5.84;83.53;99312.73;105388;1297;68190;-66
2022/12/14 01:50:42;;;;;;;12.90;3.90;;;;;;;-5.91;83.70;99308.95;105456;1294;72321;-67
2022/12/14 01:53:30;;;;;;;13.20;3.90;;;;;;;-6.00;84.04;99302.60;105371;1297;59721;-68
2022/12/14 01:56:18;;;;;;;14.60;5.10;;;;;;;-6.07;83.92;99302.27;105541;1298;60063;-67
2022/12/14 01:59:15;;;;;;;12.30;4.90;;;;;;;-6.14;84.18;99302.75;105384;1300;74173;-65
2022/12/14 02:02:06;;;;;;;14.00;5.30;;;;;;;-6.21;84.15;99305.48;105386;1297;68041;-65
2022/12/14 02:05:00;;;;;;;11.00;4.40;;;;;;;-6.26;84.28;99301.64;105339;1305;74033;-64
2022/12/14 02:07:51;;;;;;;13.50;5.40;;;;;;;-6.32;84.63;99297.42;105526;1296;57366;-65
2022/12/14 02:10:40;;;;;;;13.90;5.10;;;;;;;-6.38;84.87;99295.14;105403;1298;59317;-65
2022/12/14 02:13:34;;;;;;;13.20;4.30;;;;;;;-6.45;84.89;99294.07;104758;1296;1002455;-67
2022/12/14 02:16:22;;;;;;;10.30;4.70;;;;;;;-6.49;85.53;99296.57;105500;1298;66409;-67
2022/12/14 02:19:09;;;;;;;12.80;4.50;;;;;;;-6.57;85.25;99293.96;105468;1303;73860;-64
2022/12/14 02:22:34;;;;;;;15.70;5.70;;;;;;;-6.63;85.61;99291.17;105902;1289;59870;-63
2022/12/14 02:25:57;;;;;;;14.20;5.50;;;;;;;-6.70;85.94;99293.19;105328;1292;1002959;-64
2022/12/14 02:29:15;;;;;;;14.90;5.60;;;;;;;-6.76;85.93;99292.11;105504;1296;71769;-64
2022/12/14 02:32:35;;;;;;;16.50;6.20;;;;;;;-6.80;86.14;99295.80;105479;1290;69032;-66
2022/12/14 02:35:45;;;;;;;17.60;5.90;;;;;;;-6.87;86.15;99297.48;104660;1300;1002448;-65
2022/12/14 02:38:48;;;;;;;11.20;4.10;;;;;;;-6.92;86.17;99299.46;105391;1300;57320;-65
2022/12/14 02:41:48;;;;;;;13.70;4.90;;;;;;;-6.98;86.17;99302.86;105458;1299;60403;-66
2022/12/14 02:44:38;;;;;;;16.90;5.60;;;;;;;-7.07;86.71;99306.65;105303;1300;72175;-66
2022/12/14 02:48:01;;;;;;;10.00;3.80;;;;;;;-7.16;86.98;99305.78;105488;1297;68475;-66
2022/12/14 02:51:23;;;;;;;17.10;6.90;;;;;;;-7.29;87.32;99305.81;105388;1302;71339;-67
2022/12/14 02:54:31;;;;;;;13.70;5.20;;;;;;;-7.36;87.54;99306.46;105250;1300;60809;-66
2022/12/14 02:57:26;;;;;;;11.70;4.60;;;;;;;-7.43;88.16;99307.61;105376;1300;59049;-67
2022/12/14 03:00:14;;;;;;;12.40;4.20;;;;;;;-7.50;88.81;99307.38;105351;1297;74343;-66
2022/12/14 03:03:04;;;;;;;14.50;4.30;;;;;;;-7.55;88.33;99305.91;104567;1293;1002070;-66
2022/12/14 03:06:13;;;;;;;13.00;4.80;;;;;;;-7.60;88.49;99295.30;105618;1289;71687;-65
2022/12/14 03:09:16;;;;;;;18.70;5.40;;;;;;;-7.64;88.77;99292.11;105831;1292;60815;-65
2022/12/14 03:12:10;;;;;;;11.40;4.30;;;;;;;-7.69;88.74;99291.64;105213;1292;1002403;-67
2022/12/14 03:14:59;;;;;;;13.20;5.60;;;;;;;-7.70;88.73;99292.19;105947;1292;74296;-65
2022/12/14 03:17:52;;;;;;;13.30;5.30;;;;;;;-7.72;89.11;99286.52;105920;1292;65629;-66
2022/12/14 03:20:43;;;;;;;13.60;5.50;;;;;;;-7.74;88.71;99281.73;105915;1292;72409;-64
2022/12/14 03:23:36;;;;;;;14.30;5.20;;;;;;;-7.75;88.48;99282.78;105949;1284;57992;-67
2022/12/14 03:26:37;;;;;;;12.70;4.40;;;;;;;-7.75;88.93;99282.29;105203;1284;1002353;-64
2022/12/14 03:29:40;;;;;;;11.40;4.20;;;;;;;-7.78;88.77;99288.36;105976;1289;70475;-66
2022/12/14 03:32:31;;;;;;;11.40;4.30;;;;;;;-7.82;88.61;99283.93;105207;1287;1003093;-66
2022/12/14 03:35:27;;;;;;;16.60;5.70;;;;;;;-7.85;88.45;99278.29;105957;1290;72600;-66
2022/12/14 03:38:25;;;;;;;14.20;5.60;;;;;;;-7.86;88.27;99278.14;105886;1287;59334;-65
2022/12/14 03:41:17;;;;;;;13.90;5.50;;;;;;;-7.87;88.31;99280.90;105215;1292;1002373;-65
2022/12/14 03:44:14;;;;;;;12.00;5.10;;;;;;;-7.88;88.68;99281.95;106053;1290;74556;-65
2022/12/14 03:47:14;;;;;;;11.60;4.20;;;;;;;-7.91;88.70;99282.34;105170;1287;1002262;-66
2022/12/14 03:50:16;;;;;;;11.40;3.80;;;;;;;-7.95;88.86;99278.61;106045;1288;72674;-68
2022/12/14 03:53:32;;;;;;;16.10;4.80;;;;;;;-8.01;89.22;99281.45;105180;1288;1002434;-65
2022/12/14 03:56:23;;;;;;;12.40;4.20;;;;;;;-8.10;89.68;99281.76;105950;1290;60524;-67
2022/12/14 03:59:38;;;;;;;14.50;5.40;;;;;;;-8.14;89.55;99282.69;106042;1288;73101;-67
2022/12/14 04:02:39;;;;;;;16.50;5.40;;;;;;;-8.17;89.23;99280.98;105972;1285;66311;-66
2022/12/14 04:05:37;;;;;;;12.90;4.20;;;;;;;-8.17;89.07;99279.45;105957;1291;70862;-64
2022/12/14 04:08:51;;;;;;;11.10;3.90;;;;;;;-8.18;89.24;99282.05;105920;1291;57874;-64
2022/12/14 04:21:58;;;;;;;15.00;5.10;;;;;;;-8.35;89.76;99280.90;105177;1295;1015102;-65
2022/12/14 04:29:55;;;;;;;19.50;7.00;;;;;;;-8.41;89.65;99280.10;105965;1292;61663;-65
2022/12/14 04:31:22;;;;;;;15.70;5.80;;;;;;;-8.41;89.35;99277.35;105223;1292;1002087;-65
2022/12/14 04:34:14;;;;;;;18.20;6.10;;;;;;;-8.43;89.61;99273.59;105969;1292;68002;-65
2022/12/14 04:37:09;;;;;;;12.70;5.00;;;;;;;-8.44;89.57;99271.73;105897;1278;71701;-66
2022/12/14 04:40:35;;;;;;;13.30;5.20;;;;;;;-8.46;89.18;99261.80;105911;1297;59351;-67
2022/12/14 04:43:28;;;;;;;12.30;4.90;;;;;;;-8.47;88.93;99260.10;105416;1298;58713;-65
2022/12/14 04:46:22;;;;;;;12.00;4.80;;;;;;;-8.46;89.11;99254.58;105490;1296;70387;-66
2022/12/14 04:49:15;;;;;;;15.20;5.70;;;;;;;-8.46;88.86;99254.58;105316;1298;66549;-65
2022/12/14 04:52:22;;;;;;;17.80;6.40;;;;;;;-8.48;88.54;99262.52;105481;1291;73638;-65
2022/12/14 04:55:55;;;;;;;12.00;5.20;;;;;;;-8.48;88.42;99258.91;105379;1291;58831;-65
2022/12/14 04:58:43;;;;;;;13.30;5.10;;;;;;;-8.51;89.04;99256.70;105462;1297;59033;-66
2022/12/14 05:01:39;;;;;;;15.20;5.90;;;;;;;-8.55;88.83;99256.41;105536;1298;73861;-67
2022/12/14 05:05:17;;;;;;;14.70;5.80;;;;;;;-8.59;88.92;99253.52;105590;1288;67902;-67
2022/12/14 05:08:44;;;;;;;17.80;6.20;;;;;;;-8.60;88.63;99251.83;104943;1302;74102;-66
2022/12/14 05:11:35;;;;;;;16.70;6.50;;;;;;;-8.61;88.67;99253.04;104906;1302;58686;-66
2022/12/14 05:15:01;;;;;;;13.20;5.90;;;;;;;-8.60;88.59;99250.98;104251;1295;1002934;-66
2022/12/14 05:17:49;;;;;;;17.20;6.10;;;;;;;-8.61;88.40;99247.02;104797;1306;72863;-65
2022/12/14 05:20:37;;;;;;;15.40;6.00;;;;;;;-8.63;88.07;99241.38;105246;1293;67156;-65
2022/12/14 05:23:24;;;;;;;15.20;5.90;;;;;;;-8.64;88.34;99236.59;105497;1297;71227;-67
2022/12/14 05:26:12;;;;;;;16.40;6.30;;;;;;;-8.65;88.61;99236.23;105433;1297;57883;-66
2022/12/14 05:29:00;;;;;;;13.90;5.40;;;;;;;-8.63;88.28;99231.40;105401;1290;58742;-64
2022/12/14 05:31:49;;;;;;;13.90;5.50;;;;;;;-8.63;88.34;99226.58;105453;1296;70504;-63
2022/12/14 05:34:37;;;;;;;15.10;6.30;;;;;;;-8.63;88.32;99230.19;104668;1297;1002278;-66
2022/12/14 05:37:25;;;;;;;20.00;8.00;;;;;;;-8.63;88.21;99234.66;104667;1297;1002364;-65
2022/12/14 05:40:13;;;;;;;16.10;7.60;;;;;;;-8.63;87.90;99231.05;105283;1284;1003048;-64
2022/12/14 05:43:11;;;;;;;20.00;6.90;;;;;;;-8.63;87.91;99232.95;105330;1289;1002448;-65
2022/12/14 05:46:03;;;;;;;22.80;7.10;;;;;;;-8.64;88.06;99236.57;105895;1291;74170;-63
2022/12/14 05:48:51;;;;;;;23.00;8.30;;;;;;;-8.65;88.14;99237.96;105798;1291;160025;-64
2022/12/14 05:51:39;;;;;;;23.50;7.20;;;;;;;-8.67;88.06;99240.39;106043;1284;72337;-63
2022/12/14 05:54:27;;;;;;;23.90;8.10;;;;;;;-8.67;87.71;99239.54;106037;1289;58029;-63
2022/12/14 05:57:14;;;;;;;17.00;6.60;;;;;;;-8.67;87.55;99241.61;106033;1289;58893;-65
2022/12/14 06:00:05;;;;;;;24.20;8.80;;;;;;;-8.70;87.44;99241.46;106035;1281;73647;-64
2022/12/14 06:02:54;;;;;;;24.10;8.30;;;;;;;-8.69;87.67;99241.11;105168;1291;1002978;-66
2022/12/14 06:05:42;;;;;;;22.40;7.50;;;;;;;-8.69;87.82;99239.90;106025;1288;72342;-67
2022/12/14 06:08:32;;;;;;;22.60;8.40;;;;;;;-8.69;87.97;99240.24;105861;1288;58042;-66
2022/12/14 06:11:22;;;;;;;19.60;8.10;;;;;;;-8.71;87.52;99237.16;105191;1289;1002171;-62
2022/12/14 06:14:11;;;;;;;17.30;6.90;;;;;;;-8.71;87.77;99232.36;105795;1287;73762;-63
2022/12/14 06:16:59;;;;;;;24.10;8.40;;;;;;;-8.72;87.67;99232.38;105150;1292;1002887;-64
2022/12/14 06:19:46;;;;;;;21.70;6.80;;;;;;;-8.73;87.08;99227.90;105324;1284;1002410;-65
2022/12/14 06:22:37;;;;;;;25.30;9.20;;;;;;;-8.75;87.50;99228.97;106030;1289;59507;-63
2022/12/14 06:25:32;;;;;;;21.80;7.30;;;;;;;-8.74;87.61;99227.75;106050;1285;60198;-66
2022/12/14 06:28:19;;;;;;;30.40;10.70;;;;;;;-8.74;87.61;99224.14;105160;1291;1002159;-64
2022/12/14 06:31:16;;;;;;;24.90;8.70;;;;;;;-8.73;87.30;99224.30;105297;1288;1002388;-66
2022/12/14 06:34:05;;;;;;;23.30;8.00;;;;;;;-8.70;87.30;99224.61;105239;1284;1015229;-67
2022/12/14 06:36:53;;;;;;;28.00;9.90;;;;;;;-8.69;87.21;99221.50;105279;1288;1002373;-65
2022/12/14 06:39:40;;;;;;;23.80;8.70;;;;;;;-8.68;86.88;99221.15;105215;1297;1002479;-68
2022/12/14 06:42:30;;;;;;;31.50;9.70;;;;;;;-8.67;87.03;99221.64;106011;1291;71552;-65
2022/12/14 06:45:17;;;;;;;27.10;9.60;;;;;;;-8.66;86.87;99226.10;106069;1292;66180;-66
2022/12/14 06:48:05;;;;;;;19.50;5.30;;;;;;;-8.67;86.28;99225.95;106023;1288;72904;-66
2022/12/14 06:51:03;;;;;;;15.60;6.20;;;;;;;-8.69;86.70;99224.92;105138;1291;1015284;-64
2022/12/14 06:53:56;;;;;;;22.20;8.90;;;;;;;-8.73;86.38;99231.19;105970;1291;60068;-68
2022/12/14 06:56:46;;;;;;;26.50;9.00;;;;;;;-8.77;86.59;99233.47;105866;1295;74157;-64
2022/12/14 06:59:34;;;;;;;23.90;7.70;;;;;;;-8.80;86.66;99230.91;105877;1293;66617;-67
2022/12/14 07:02:21;;;;;;;26.90;9.90;;;;;;;-8.83;86.73;99227.70;105952;1284;72541;-64
2022/12/14 07:05:09;;;;;;;23.80;7.90;;;;;;;-8.88;86.46;99218.64;105944;1291;60581;-65
2022/12/14 07:07:57;;;;;;;23.40;8.60;;;;;;;-8.87;86.45;99226.54;105852;1298;60087;-66
2022/12/14 07:10:44;;;;;;;25.00;8.50;;;;;;;-8.88;86.94;99233.77;105980;1291;71579;-66
2022/12/14 07:13:32;;;;;;;22.30;8.70;;;;;;;-8.87;86.73;99238.23;105993;1291;66545;-68
2022/12/14 07:16:25;;;;;;;25.40;9.30;;;;;;;-8.85;86.89;99235.11;105936;1292;73935;-64
2022/12/14 07:19:13;;;;;;;22.80;8.80;;;;;;;-8.80;86.62;99236.59;105904;1290;58836;-67
2022/12/14 07:22:03;;;;;;;22.30;8.00;;;;;;;-8.74;86.83;99234.11;105972;1292;61183;-67
2022/12/14 07:24:50;;;;;;;20.20;7.90;;;;;;;-8.72;86.27;99232.73;105854;1292;72710;-66
2022/12/14 07:27:38;;;;;;;21.30;7.90;;;;;;;-8.68;86.36;99234.21;105971;1292;66754;-65
2022/12/14 07:30:26;;;;;;;25.90;9.00;;;;;;;-8.66;86.20;99235.04;105962;1284;71512;-65
2022/12/14 07:33:13;;;;;;;22.30;8.50;;;;;;;-8.62;86.36;99231.56;105944;1284;58849;-64
2022/12/14 07:36:09;;;;;;;18.90;7.30;;;;;;;-8.59;86.24;99222.92;105973;1284;60000;-66
2022/12/14 07:38:57;;;;;;;21.50;7.90;;;;;;;-8.54;85.69;99223.70;105962;1290;71742;-66
2022/12/14 07:41:47;;;;;;;21.60;8.80;;;;;;;-8.47;85.53;99221.38;105264;1292;1002244;-67
2022/12/14 07:44:40;;;;;;;25.00;8.90;;;;;;;-8.39;85.51;99223.13;105776;1295;72379;-67
2022/12/14 07:47:30;;;;;;;26.00;8.90;;;;;;;-8.29;85.72;99227.80;105776;1292;58685;-66
2022/12/14 07:50:18;;;;;;;23.50;9.30;;;;;;;-8.16;85.43;99226.43;105801;1295;60407;-68
2022/12/14 07:53:05;;;;;;;23.40;9.20;;;;;;;-8.06;85.36;99224.71;105823;1287;73201;-65
2022/12/14 07:55:53;;;;;;;21.10;8.70;;;;;;;-7.97;85.01;99224.22;105808;1284;68734;-65
2022/12/14 07:58:41;;;;;;;17.00;7.20;;;;;;;-7.87;85.05;99226.81;105793;1292;72382;-67
2022/12/14 08:01:34;;;;;;;23.70;8.30;;;;;;;-7.77;84.33;99222.17;105664;1292;57337;-65
2022/12/14 08:04:22;;;;;;;23.80;10.20;;;;;;;-7.67;83.88;99215.98;105813;1292;61137;-64
2022/12/14 08:07:10;;;;;;;28.70;10.00;;;;;;;-7.58;84.50;99213.08;105824;1295;73229;-65
2022/12/14 08:09:58;;;;;;;27.10;10.10;;;;;;;-7.47;83.22;99210.64;105519;1295;67855;-66
2022/12/14 08:12:49;;;;;;;26.40;9.10;;;;;;;-7.37;82.79;99207.89;105827;1295;71538;-66
2022/12/14 08:15:37;;;;;;;20.50;8.00;;;;;;;-7.29;82.02;99205.66;105743;1285;57360;-69
2022/12/14 08:18:25;;;;;;;21.20;7.30;;;;;;;-7.16;81.85;99205.58;106035;1284;61424;-65
2022/12/14 08:21:19;;;;;;;21.90;5.80;;;;;;;-6.84;81.10;99202.38;105936;1290;72712;-68
2022/12/14 08:24:11;;;;;;;18.10;7.40;;;;;;;-5.80;77.70;99200.16;105297;1284;1002045;-65
2022/12/14 08:26:58;;;;;;;19.80;7.20;;;;;;;-4.17;74.32;99197.00;105731;1289;73893;-70
2022/12/14 08:29:45;;;;;;;20.00;8.60;;;;;;;-2.75;68.34;99186.96;105301;1289;1002329;-71
2022/12/14 08:32:33;;;;;;;20.00;8.10;;;;;;;-1.43;63.25;99182.48;106029;1281;61170;-72
2022/12/14 08:35:21;;;;;;;17.30;8.00;;;;;;;-0.49;59.31;99174.86;106042;1289;74261;-72
2022/12/14 08:38:09;;;;;;;19.80;8.10;;;;;;;0.56;57.05;99170.98;105880;1291;68136;-72
2022/12/14 08:41:04;;;;;;;21.20;8.20;;;;;;;1.35;52.92;99162.02;106057;1284;71329;-72
2022/12/14 08:43:59;;;;;;;19.00;8.50;;;;;;;2.07;51.90;99159.83;105978;1291;57291;-74
2022/12/14 08:46:47;;;;;;;19.90;9.10;;;;;;;2.81;49.38;99158.31;105997;1284;61646;-72
2022/12/14 08:49:35;;;;;;;17.60;8.20;;;;;;;3.47;47.41;99147.42;105967;1292;74172;-73
2022/12/14 08:52:22;;;;;;;18.50;9.00;;;;;;;3.77;44.94;99142.93;106020;1281;69123;-72
2022/12/14 08:55:10;;;;;;;21.60;9.10;;;;;;;3.34;44.22;99143.12;106014;1284;72405;-73
2022/12/14 08:57:58;;;;;;;19.40;8.70;;;;;;;2.43;46.68;99145.30;105960;1290;57929;-73
2022/12/14 09:00:45;;;;;;;18.10;9.50;;;;;;;2.01;46.39;99145.58;105994;1292;60367;-72
2022/12/14 09:03:34;;;;;;;18.70;9.80;;;;;;;1.41;47.92;99147.52;105984;1291;71390;-71
2022/12/14 09:06:28;;;;;;;18.60;8.80;;;;;;;1.76;48.14;99144.75;105965;1288;67721;-72
2022/12/14 09:09:15;;;;;;;20.90;9.90;;;;;;;2.46;46.51;99140.90;105918;1289;70869;-71
2022/12/14 09:12:06;;;;;;;20.30;9.80;;;;;;;3.17;45.79;99135.09;105271;1284;1002350;-71
2022/12/14 09:14:54;;;;;;;18.20;9.70;;;;;;;3.78;43.77;99125.80;106050;1284;58962;-70
2022/12/14 09:17:41;;;;;;;19.20;9.60;;;;;;;3.87;42.96;99117.89;106049;1284;73320;-71
2022/12/14 09:20:29;;;;;;;20.40;10.30;;;;;;;4.30;42.12;99113.81;106050;1289;67711;-70
2022/12/14 09:23:16;;;;;;;19.90;9.90;;;;;;;4.47;41.24;99116.05;106018;1294;73858;-69
2022/12/14 09:26:26;;;;;;;17.60;9.30;;;;;;;4.69;41.18;99107.30;106051;1289;57178;-72
2022/12/14 09:29:16;;;;;;;17.60;9.40;;;;;;;4.87;41.20;99104.37;105856;1293;61181;-72
2022/12/14 09:32:04;;;;;;;17.60;10.00;;;;;;;5.74;40.00;99095.54;105942;1285;73084;-73
2022/12/14 09:34:52;;;;;;;19.20;10.30;;;;;;;6.12;38.12;99094.02;105255;1292;1002107;-70
2022/12/14 09:37:40;;;;;;;18.20;9.70;;;;;;;6.06;37.11;99089.89;105987;1290;72404;-69
2022/12/14 09:40:30;;;;;;;19.70;10.50;;;;;;;5.84;37.17;99086.38;106037;1282;58174;-71
2022/12/14 09:43:42;;;;;;;18.60;9.50;;;;;;;5.89;36.58;99087.06;105205;1285;1002785;-71
2022/12/14 09:47:18;;;;;;;19.20;10.50;;;;;;;5.61;36.89;99095.09;105983;1290;72781;-71
2022/12/14 09:50:17;;;;;;;18.50;9.30;;;;;;;5.15;37.51;99095.93;105989;1291;68134;-70
2022/12/14 09:53:11;;;;;;;19.70;10.90;;;;;;;4.96;37.63;99086.86;105903;1289;72630;-71
2022/12/14 09:55:59;;;;;;;19.30;11.80;;;;;;;5.70;37.11;99083.84;105788;1287;57350;-70
2022/12/14 09:58:58;;;;;;;22.40;12.70;;;;;;;5.73;36.25;99082.81;105892;1277;59025;-71
2022/12/14 10:02:14;;;;;;;23.30;11.80;;;;;;;5.47;36.19;99080.29;105781;1294;73876;-69
2022/12/14 10:05:55;;;;;;;23.40;12.80;;;;;;;4.94;36.47;99079.42;105907;1292;67678;-71
2022/12/14 10:08:58;;;;;;;23.30;12.90;;;;;;;5.43;36.02;99074.05;105892;1290;72663;-70
2022/12/14 10:11:59;;;;;;;24.30;13.90;;;;;;;5.86;35.55;99074.29;105858;1294;58245;-72
2022/12/14 10:15:07;;;;;;;27.60;15.60;;;;;;;6.22;35.48;99071.42;105865;1292;59635;-70
2022/12/14 10:18:45;;;;;;;25.80;13.00;;;;;;;5.90;35.01;99070.61;105891;1288;72988;-72
2022/12/14 10:22:11;;;;;;;25.40;14.20;;;;;;;5.20;35.91;99068.11;106008;1282;67544;-70
2022/12/14 10:25:23;;;;;;;25.60;14.20;;;;;;;4.69;37.24;99064.26;105784;1291;71515;-70
2022/12/14 10:28:29;;;;;;;24.60;13.90;;;;;;;5.12;37.16;99056.52;105121;1292;1002309;-71
2022/12/14 10:31:39;;;;;;;23.80;13.00;;;;;;;4.21;37.75;99060.65;105894;1291;60064;-73
2022/12/14 10:34:31;;;;;;;25.30;13.80;;;;;;;2.63;40.76;99063.71;105979;1298;72630;-70
2022/12/14 10:37:25;;;;;;;25.80;13.60;;;;;;;0.64;45.06;99068.45;105962;1292;69470;-70
2022/12/14 10:40:31;;;;;;;26.80;12.50;;;;;;;-0.80;49.05;99072.77;105038;1290;1002062;-70
2022/12/14 10:43:41;;;;;;;30.00;13.40;;;;;;;-2.26;53.81;99078.80;105811;1288;58455;-67
2022/12/14 10:46:59;;;;;;;29.40;13.70;;;;;;;-3.30;57.84;99080.52;105756;1286;60080;-71
2022/12/14 10:50:21;;;;;;;32.60;13.40;;;;;;;-4.05;61.33;99078.83;105988;1291;74126;-72
2022/12/14 10:53:18;;;;;;;27.30;12.00;;;;;;;-4.90;66.48;99075.29;105953;1284;66426;-71
2022/12/14 10:56:17;;;;;;;25.20;9.70;;;;;;;-5.23;68.64;99078.86;105175;1290;1002339;-66
2022/12/14 10:59:21;;;;;;;24.40;10.30;;;;;;;-5.59;71.82;99078.83;105851;1287;59181;-69
2022/12/14 11:02:19;;;;;;;27.20;10.60;;;;;;;-5.83;73.93;99078.79;106011;1282;58864;-73
2022/12/14 11:05:44;;;;;;;26.90;10.60;;;;;;;-5.88;74.71;99072.84;105923;1290;71943;-64
2022/12/14 11:08:44;;;;;;;25.10;10.40;;;;;;;-5.78;75.18;99075.19;105965;1291;65761;-67
2022/12/14 11:11:35;;;;;;;26.00;9.60;;;;;;;-5.91;75.91;99072.45;106049;1288;72650;-68
2022/12/14 11:14:23;;;;;;;23.60;9.20;;;;;;;-5.98;76.36;99072.11;105916;1284;57878;-64
2022/12/14 11:17:42;;;;;;;24.50;8.10;;;;;;;-5.99;77.50;99066.93;105320;1289;1002140;-65
2022/12/14 11:20:32;;;;;;;26.50;9.70;;;;;;;-5.81;77.04;99070.09;105277;1288;1002128;-65
2022/12/14 11:23:29;;;;;;;27.90;11.00;;;;;;;-5.45;75.91;99062.87;105223;1289;1002404;-65
2022/12/14 11:26:36;;;;;;;22.50;9.50;;;;;;;-5.27;75.11;99057.89;105175;1287;1002361;-68
2022/12/14 11:29:33;;;;;;;32.20;12.10;;;;;;;-5.41;75.12;99055.32;105928;1292;58572;-65
2022/12/14 11:32:24;;;;;;;28.80;11.40;;;;;;;-5.37;75.23;99050.55;106055;1287;60378;-70
2022/12/14 11:35:18;;;;;;;28.80;10.80;;;;;;;-5.25;74.96;99053.31;104997;1294;1002436;-68
2022/12/14 11:38:14;;;;;;;28.40;10.50;;;;;;;-5.33;75.24;99051.14;104742;1290;1003002;-66
2022/12/14 11:41:03;;;;;;;26.50;9.40;;;;;;;-5.43;75.68;99041.22;105898;1291;72813;-66
2022/12/14 11:44:14;;;;;;;25.60;10.70;;;;;;;-5.31;75.77;99050.89;105932;1285;57678;-68
2022/12/14 11:47:12;;;;;;;32.70;12.50;;;;;;;-5.03;75.05;99048.15;105935;1291;61155;-71
2022/12/14 11:50:00;;;;;;;28.70;10.90;;;;;;;-4.96;74.34;99042.60;105323;1287;1002354;-68
2022/12/14 11:52:48;;;;;;;30.20;11.10;;;;;;;-4.93;74.29;99037.84;105901;1290;67635;-70
2022/12/14 11:55:39;;;;;;;28.60;11.20;;;;;;;-4.94;74.39;99034.92;105785;1293;72413;-63
2022/12/14 11:58:32;;;;;;;32.10;11.50;;;;;;;-4.88;74.02;99030.77;105799;1300;57237;-67
2022/12/14 12:01:25;;;;;;;28.30;11.50;;;;;;;-5.08;74.59;99030.67;105978;1297;60408;-72
2022/12/14 12:04:16;;;;;;;23.20;10.10;;;;;;;-5.28;75.45;99033.52;105873;1290;72839;-73
2022/12/14 12:07:53;;;;;;;21.70;8.60;;;;;;;-4.93;75.38;99026.06;105244;1298;1002199;-64
2022/12/14 12:10:45;;;;;;;27.30;9.90;;;;;;;-4.47;73.12;99025.83;105846;1291;73023;-62
2022/12/14 12:13:41;;;;;;;28.70;12.90;;;;;;;-4.52;72.95;99022.01;105271;1290;1002830;-64
2022/12/14 12:16:31;;;;;;;25.30;9.50;;;;;;;-4.27;72.29;99024.45;105927;1284;61438;-64
2022/12/14 12:19:33;;;;;;;29.60;11.10;;;;;;;-4.23;71.59;99021.21;105976;1288;72686;-66
2022/12/14 12:22:21;;;;;;;23.40;10.70;;;;;;;-3.97;71.16;99013.21;105923;1290;69035;-65
2022/12/14 12:25:14;;;;;;;29.90;12.50;;;;;;;-3.75;69.57;99008.97;106042;1287;72375;-65
2022/12/14 12:28:35;;;;;;;26.20;11.50;;;;;;;-3.91;69.59;99017.02;105812;1292;57968;-68
2022/12/14 12:31:33;;;;;;;25.70;10.40;;;;;;;-4.19;70.45;99012.76;106075;1292;58640;-66
2022/12/14 12:35:08;;;;;;;23.50;8.60;;;;;;;-4.63;72.29;99009.55;105949;1290;72958;-66
2022/12/14 12:38:36;;;;;;;23.90;9.90;;;;;;;-5.13;74.25;99009.71;106057;1292;68627;-64
2022/12/14 12:41:54;;;;;;;33.20;10.30;;;;;;;-5.43;76.11;99014.41;105294;1287;1002195;-65
2022/12/14 12:44:54;;;;;;;24.20;10.30;;;;;;;-5.61;77.36;99011.65;105544;1296;60682;-63
2022/12/14 12:48:11;;;;;;;27.10;10.20;;;;;;;-5.77;78.06;99013.45;105484;1296;60231;-67
2022/12/14 12:51:05;;;;;;;23.90;8.80;;;;;;;-5.91;78.59;99008.16;104673;1297;1002594;-65
2022/12/14 12:54:07;;;;;;;28.20;11.70;;;;;;;-6.02;79.32;99017.28;105435;1297;67525;-65
2022/12/14 12:56:59;;;;;;;30.30;11.40;;;;;;;-6.05;79.52;99012.70;104709;1299;1002379;-70
2022/12/14 12:59:51;;;;;;;24.20;9.00;;;;;;;-6.06;79.79;99012.55;105459;1297;57517;-68
2022/12/14 13:02:47;;;;;;;26.70;10.60;;;;;;;-6.08;80.01;99008.82;105482;1297;58290;-68
2022/12/14 13:05:40;;;;;;;29.30;10.70;;;;;;;-6.15;80.31;99007.25;105466;1297;72990;-63
2022/12/14 13:08:39;;;;;;;32.00;11.70;;;;;;;-6.19;80.67;99014.96;105358;1292;68672;-65
2022/12/14 13:11:34;;;;;;;26.60;10.10;;;;;;;-6.28;81.30;99007.10;105390;1300;73936;-64
2022/12/14 13:14:41;;;;;;;25.50;8.70;;;;;;;-6.33;81.44;99004.98;104710;1296;1002643;-67
2022/12/14 13:17:44;;;;;;;19.10;7.20;;;;;;;-6.40;81.74;98998.44;105369;1292;60494;-72
2022/12/14 13:20:35;;;;;;;17.80;7.40;;;;;;;-6.44;82.05;98996.29;104694;1293;1002085;-64
2022/12/14 13:23:27;;;;;;;21.60;7.60;;;;;;;-6.49;82.31;98996.56;105152;1292;1002429;-64
2022/12/14 13:27:09;;;;;;;20.70;7.50;;;;;;;-6.54;82.46;98990.33;105987;1284;71455;-63
2022/12/14 13:30:42;;;;;;;20.00;8.00;;;;;;;-6.62;83.10;98989.33;105985;1287;57968;-69
2022/12/14 13:33:57;;;;;;;20.20;7.20;;;;;;;-6.68;83.93;98983.58;105153;1292;1002040;-68
2022/12/14 13:37:09;;;;;;;27.10;9.40;;;;;;;-6.73;83.87;98977.67;105861;1290;71570;-68